sensor_id;sensor_type;location;lat;lon;timestamp;P1;P2;P0
46302;PMS7003;32029;51.358;5.628;2022-10-16T00:01:38;5.40;5.00;3.00
46302;PMS7003;32029;51.358;5.628;2022-10-16T00:04:06;5.80;4.80;4.20
46302;PMS7003;32029;51.358;5.628;2022-10-16T00:06:34;6.20;5.00;4.00
46302;PMS7003;32029;51.358;5.628;2022-10-16T00:09:00;5.00;5.00;4.33
46302;PMS7003;32029;51.358;5.628;2022-10-16T00:11:31;5.40;5.00;4.40
46302;PMS7003;32029;51.358;5.628;2022-10-16T00:14:00;4.00;4.00;3.33
46302;PMS7003;32029;51.358;5.628;2022-10-16T00:16:28;6.00;6.00;5.00
46302;PMS7003;32029;51.358;5.628;2022-10-16T00:18:56;5.67;4.67;4.00
46302;PMS7003;32029;51.358;5.628;2022-10-16T00:21:27;5.00;5.00;5.00
46302;PMS7003;32029;51.358;5.628;2022-10-16T00:24:05;4.60;4.60;4.00
46302;PMS7003;32029;51.358;5.628;2022-10-16T00:26:34;5.00;5.00;5.00
46302;PMS7003;32029;51.358;5.628;2022-10-16T00:29:02;4.67;4.67;4.33
46302;PMS7003;32029;51.358;5.628;2022-10-16T00:31:30;5.33;4.00;4.00
46302;PMS7003;32029;51.358;5.628;2022-10-16T00:33:58;4.80;4.80;4.00
46302;PMS7003;32029;51.358;5.628;2022-10-16T00:36:25;5.00;4.00;3.00
46302;PMS7003;32029;51.358;5.628;2022-10-16T00:38:54;4.80;4.00;3.60
46302;PMS7003;32029;51.358;5.628;2022-10-16T00:41:22;4.00;4.00;4.00
46302;PMS7003;32029;51.358;5.628;2022-10-16T00:43:55;5.67;4.67;3.67
46302;PMS7003;32029;51.358;5.628;2022-10-16T00:46:28;4.00;4.00;4.00
46302;PMS7003;32029;51.358;5.628;2022-10-16T00:49:05;7.00;4.00;3.67
46302;PMS7003;32029;51.358;5.628;2022-10-16T00:54:06;3.33;3.33;3.00
46302;PMS7003;32029;51.358;5.628;2022-10-16T00:56:36;3.00;3.00;2.33
46302;PMS7003;32029;51.358;5.628;2022-10-16T00:59:03;4.00;4.00;3.00
46302;PMS7003;32029;51.358;5.628;2022-10-16T01:01:37;5.67;4.67;3.67
46302;PMS7003;32029;51.358;5.628;2022-10-16T01:04:03;3.00;3.00;2.00
46302;PMS7003;32029;51.358;5.628;2022-10-16T01:12:33;3.00;3.00;3.00
46302;PMS7003;32029;51.358;5.628;2022-10-16T01:15:29;4.00;3.00;2.33
46302;PMS7003;32029;51.358;5.628;2022-10-16T01:18:04;5.00;3.00;3.00
46302;PMS7003;32029;51.358;5.628;2022-10-16T01:20:43;4.67;4.00;4.00
46302;PMS7003;32029;51.358;5.628;2022-10-16T01:29:03;2.67;2.67;2.00
46302;PMS7003;32029;51.358;5.628;2022-10-16T01:31:33;3.33;3.00;3.00
46302;PMS7003;32029;51.358;5.628;2022-10-16T01:34:15;3.67;3.00;2.00
46302;PMS7003;32029;51.358;5.628;2022-10-16T01:36:47;3.00;3.00;2.33
46302;PMS7003;32029;51.358;5.628;2022-10-16T01:39:20;3.00;3.00;2.67
46302;PMS7003;32029;51.358;5.628;2022-10-16T01:42:12;2.00;2.00;2.00
46302;PMS7003;32029;51.358;5.628;2022-10-16T01:44:41;4.00;2.33;2.33
46302;PMS7003;32029;51.358;5.628;2022-10-16T01:47:10;3.00;2.00;2.00
46302;PMS7003;32029;51.358;5.628;2022-10-16T01:49:39;3.00;3.00;2.00
46302;PMS7003;32029;51.358;5.628;2022-10-16T01:52:11;4.00;3.00;2.33
46302;PMS7003;32029;51.358;5.628;2022-10-16T01:54:43;2.33;2.33;2.00
46302;PMS7003;32029;51.358;5.628;2022-10-16T01:57:14;1.00;1.00;1.00
46302;PMS7003;32029;51.358;5.628;2022-10-16T01:59:45;1.67;1.67;1.33
46302;PMS7003;32029;51.358;5.628;2022-10-16T02:02:16;3.33;2.33;1.67
46302;PMS7003;32029;51.358;5.628;2022-10-16T02:04:47;5.00;3.00;2.00
46302;PMS7003;32029;51.358;5.628;2022-10-16T02:07:16;2.00;2.00;2.00
46302;PMS7003;32029;51.358;5.628;2022-10-16T02:09:42;3.00;3.00;2.00
46302;PMS7003;32029;51.358;5.628;2022-10-16T02:12:11;3.67;3.33;3.00
46302;PMS7003;32029;51.358;5.628;2022-10-16T02:14:42;3.00;3.00;2.33
46302;PMS7003;32029;51.358;5.628;2022-10-16T02:17:13;2.00;2.00;2.00
46302;PMS7003;32029;51.358;5.628;2022-10-16T02:19:41;4.67;2.33;2.00
46302;PMS7003;32029;51.358;5.628;2022-10-16T02:22:12;2.00;2.00;2.00
46302;PMS7003;32029;51.358;5.628;2022-10-16T02:24:57;3.00;1.67;1.00
46302;PMS7003;32029;51.358;5.628;2022-10-16T02:30:13;2.67;2.67;2.00
46302;PMS7003;32029;51.358;5.628;2022-10-16T02:32:46;5.33;3.33;2.33
46302;PMS7003;32029;51.358;5.628;2022-10-16T02:35:15;2.67;2.00;2.00
46302;PMS7003;32029;51.358;5.628;2022-10-16T02:37:45;2.00;2.00;1.33
46302;PMS7003;32029;51.358;5.628;2022-10-16T02:40:13;3.67;3.00;2.00
46302;PMS7003;32029;51.358;5.628;2022-10-16T02:42:41;2.00;2.00;2.00
46302;PMS7003;32029;51.358;5.628;2022-10-16T02:45:09;2.00;2.00;2.00
46302;PMS7003;32029;51.358;5.628;2022-10-16T02:47:38;3.40;2.00;1.40
46302;PMS7003;32029;51.358;5.628;2022-10-16T02:50:05;4.00;2.00;2.00
46302;PMS7003;32029;51.358;5.628;2022-10-16T02:52:32;2.67;2.67;2.67
46302;PMS7003;32029;51.358;5.628;2022-10-16T02:54:58;2.00;2.00;1.33
46302;PMS7003;32029;51.358;5.628;2022-10-16T02:57:25;1.67;1.67;1.67
46302;PMS7003;32029;51.358;5.628;2022-10-16T02:59:52;2.00;2.00;2.00
46302;PMS7003;32029;51.358;5.628;2022-10-16T03:02:18;2.00;2.00;2.00
46302;PMS7003;32029;51.358;5.628;2022-10-16T03:04:45;2.00;2.00;2.00
46302;PMS7003;32029;51.358;5.628;2022-10-16T03:07:12;3.00;2.67;2.00
46302;PMS7003;32029;51.358;5.628;2022-10-16T03:09:39;2.00;2.00;1.67
46302;PMS7003;32029;51.358;5.628;2022-10-16T03:12:05;1.33;1.33;1.33
46302;PMS7003;32029;51.358;5.628;2022-10-16T03:14:32;2.00;2.00;2.00
46302;PMS7003;32029;51.358;5.628;2022-10-16T03:17:00;2.33;1.00;1.00
46302;PMS7003;32029;51.358;5.628;2022-10-16T03:19:26;1.00;1.00;1.00
46302;PMS7003;32029;51.358;5.628;2022-10-16T03:21:53;1.00;1.00;1.00
46302;PMS7003;32029;51.358;5.628;2022-10-16T03:24:20;3.00;1.00;1.00
46302;PMS7003;32029;51.358;5.628;2022-10-16T03:26:46;1.33;1.33;1.33
46302;PMS7003;32029;51.358;5.628;2022-10-16T03:29:13;4.33;3.00;2.00
46302;PMS7003;32029;51.358;5.628;2022-10-16T03:31:41;3.00;2.00;2.00
46302;PMS7003;32029;51.358;5.628;2022-10-16T03:34:08;2.00;2.00;2.00
46302;PMS7003;32029;51.358;5.628;2022-10-16T03:36:35;5.00;2.00;2.00
46302;PMS7003;32029;51.358;5.628;2022-10-16T03:39:01;2.00;2.00;2.00
46302;PMS7003;32029;51.358;5.628;2022-10-16T03:41:28;2.00;2.00;1.67
46302;PMS7003;32029;51.358;5.628;2022-10-16T03:43:55;2.00;2.00;2.00
46302;PMS7003;32029;51.358;5.628;2022-10-16T03:46:22;2.00;2.00;1.00
46302;PMS7003;32029;51.358;5.628;2022-10-16T03:48:49;2.00;2.00;2.00
46302;PMS7003;32029;51.358;5.628;2022-10-16T03:51:15;2.00;2.00;1.67
46302;PMS7003;32029;51.358;5.628;2022-10-16T03:53:42;2.00;2.00;1.00
46302;PMS7003;32029;51.358;5.628;2022-10-16T03:56:09;2.67;2.00;1.33
46302;PMS7003;32029;51.358;5.628;2022-10-16T03:58:37;1.67;1.67;1.00
46302;PMS7003;32029;51.358;5.628;2022-10-16T04:01:03;2.00;2.00;2.00
46302;PMS7003;32029;51.358;5.628;2022-10-16T04:03:30;1.00;1.00;1.00
46302;PMS7003;32029;51.358;5.628;2022-10-16T04:05:57;3.00;2.00;1.67
46302;PMS7003;32029;51.358;5.628;2022-10-16T04:08:24;2.00;2.00;2.00
46302;PMS7003;32029;51.358;5.628;2022-10-16T04:10:50;2.00;2.00;2.00
46302;PMS7003;32029;51.358;5.628;2022-10-16T04:13:17;3.00;3.00;2.00
46302;PMS7003;32029;51.358;5.628;2022-10-16T04:15:44;3.00;3.00;2.00
46302;PMS7003;32029;51.358;5.628;2022-10-16T04:18:11;2.00;2.00;1.33
46302;PMS7003;32029;51.358;5.628;2022-10-16T04:20:38;3.33;2.00;1.67
46302;PMS7003;32029;51.358;5.628;2022-10-16T04:23:06;4.00;2.00;1.67
46302;PMS7003;32029;51.358;5.628;2022-10-16T04:25:33;2.00;2.00;2.00
46302;PMS7003;32029;51.358;5.628;2022-10-16T04:27:59;2.33;1.67;1.00
46302;PMS7003;32029;51.358;5.628;2022-10-16T04:30:26;2.00;2.00;2.00
46302;PMS7003;32029;51.358;5.628;2022-10-16T04:32:53;2.00;2.00;1.33
46302;PMS7003;32029;51.358;5.628;2022-10-16T04:35:20;3.00;2.00;1.00
46302;PMS7003;32029;51.358;5.628;2022-10-16T04:37:48;2.00;2.00;2.00
46302;PMS7003;32029;51.358;5.628;2022-10-16T04:40:15;2.67;2.67;2.33
46302;PMS7003;32029;51.358;5.628;2022-10-16T04:42:41;3.00;2.00;1.67
46302;PMS7003;32029;51.358;5.628;2022-10-16T04:45:08;2.00;2.00;1.00
46302;PMS7003;32029;51.358;5.628;2022-10-16T04:47:35;1.00;1.00;1.00
46302;PMS7003;32029;51.358;5.628;2022-10-16T04:50:02;1.00;1.00;1.00
46302;PMS7003;32029;51.358;5.628;2022-10-16T04:52:29;2.00;2.00;2.00
46302;PMS7003;32029;51.358;5.628;2022-10-16T04:54:57;2.00;2.00;2.00
46302;PMS7003;32029;51.358;5.628;2022-10-16T04:57:28;2.00;2.00;2.00
46302;PMS7003;32029;51.358;5.628;2022-10-16T04:59:55;2.00;2.00;2.00
46302;PMS7003;32029;51.358;5.628;2022-10-16T05:02:23;3.67;2.00;2.00
46302;PMS7003;32029;51.358;5.628;2022-10-16T05:04:49;1.67;1.67;1.00
46302;PMS7003;32029;51.358;5.628;2022-10-16T05:07:18;2.00;2.00;2.00
46302;PMS7003;32029;51.358;5.628;2022-10-16T05:09:45;2.67;2.00;2.00
46302;PMS7003;32029;51.358;5.628;2022-10-16T05:12:12;3.67;2.00;1.00
46302;PMS7003;32029;51.358;5.628;2022-10-16T05:14:39;2.33;2.33;2.00
46302;PMS7003;32029;51.358;5.628;2022-10-16T05:17:05;2.33;2.00;2.00
46302;PMS7003;32029;51.358;5.628;2022-10-16T05:19:32;3.00;2.00;2.00
46302;PMS7003;32029;51.358;5.628;2022-10-16T05:21:59;3.67;2.00;1.67
46302;PMS7003;32029;51.358;5.628;2022-10-16T05:24:26;2.00;2.00;1.33
46302;PMS7003;32029;51.358;5.628;2022-10-16T05:26:53;2.00;2.00;2.00
46302;PMS7003;32029;51.358;5.628;2022-10-16T05:29:20;1.67;1.33;1.33
46302;PMS7003;32029;51.358;5.628;2022-10-16T05:31:46;4.00;2.67;2.00
46302;PMS7003;32029;51.358;5.628;2022-10-16T05:34:16;2.00;2.00;2.00
46302;PMS7003;32029;51.358;5.628;2022-10-16T05:36:43;2.33;2.00;2.00
46302;PMS7003;32029;51.358;5.628;2022-10-16T05:39:11;1.67;1.67;1.67
46302;PMS7003;32029;51.358;5.628;2022-10-16T05:41:39;3.00;2.00;2.00
46302;PMS7003;32029;51.358;5.628;2022-10-16T05:44:06;2.00;2.00;2.00
46302;PMS7003;32029;51.358;5.628;2022-10-16T05:46:33;1.00;1.00;1.00
46302;PMS7003;32029;51.358;5.628;2022-10-16T05:49:01;2.00;2.00;2.00
46302;PMS7003;32029;51.358;5.628;2022-10-16T05:51:27;2.00;2.00;2.00
46302;PMS7003;32029;51.358;5.628;2022-10-16T05:53:54;2.00;2.00;2.00
46302;PMS7003;32029;51.358;5.628;2022-10-16T05:56:21;2.00;2.00;2.00
46302;PMS7003;32029;51.358;5.628;2022-10-16T05:58:47;3.00;3.00;2.00
46302;PMS7003;32029;51.358;5.628;2022-10-16T06:01:15;3.00;3.00;2.33
46302;PMS7003;32029;51.358;5.628;2022-10-16T06:03:44;2.33;2.33;2.00
46302;PMS7003;32029;51.358;5.628;2022-10-16T06:06:11;2.67;2.67;2.33
46302;PMS7003;32029;51.358;5.628;2022-10-16T06:08:41;4.00;4.00;3.60
46302;PMS7003;32029;51.358;5.628;2022-10-16T06:11:11;3.67;3.67;3.00
46302;PMS7003;32029;51.358;5.628;2022-10-16T06:13:40;2.33;2.33;2.00
46302;PMS7003;32029;51.358;5.628;2022-10-16T06:16:12;3.33;2.00;1.67
46302;PMS7003;32029;51.358;5.628;2022-10-16T06:18:39;2.33;2.33;2.00
46302;PMS7003;32029;51.358;5.628;2022-10-16T06:21:07;3.00;2.00;2.00
46302;PMS7003;32029;51.358;5.628;2022-10-16T06:23:35;4.00;3.00;3.00
46302;PMS7003;32029;51.358;5.628;2022-10-16T06:26:10;3.00;3.00;2.00
46302;PMS7003;32029;51.358;5.628;2022-10-16T06:28:38;5.00;3.00;2.33
46302;PMS7003;32029;51.358;5.628;2022-10-16T06:31:05;1.67;1.67;1.67
46302;PMS7003;32029;51.358;5.628;2022-10-16T06:33:34;5.33;3.00;2.00
46302;PMS7003;32029;51.358;5.628;2022-10-16T06:36:08;2.67;2.67;1.33
46302;PMS7003;32029;51.358;5.628;2022-10-16T06:38:38;2.00;2.00;1.00
46302;PMS7003;32029;51.358;5.628;2022-10-16T06:41:05;3.00;2.00;2.00
46302;PMS7003;32029;51.358;5.628;2022-10-16T06:43:33;2.00;2.00;2.00
46302;PMS7003;32029;51.358;5.628;2022-10-16T06:46:03;4.33;3.00;2.00
46302;PMS7003;32029;51.358;5.628;2022-10-16T06:48:31;4.00;3.00;2.00
46302;PMS7003;32029;51.358;5.628;2022-10-16T06:51:01;2.00;2.00;1.67
46302;PMS7003;32029;51.358;5.628;2022-10-16T06:53:31;2.00;2.00;2.00
46302;PMS7003;32029;51.358;5.628;2022-10-16T06:56:07;3.67;3.67;2.67
46302;PMS7003;32029;51.358;5.628;2022-10-16T06:58:34;1.67;1.00;1.00
46302;PMS7003;32029;51.358;5.628;2022-10-16T07:01:01;2.67;2.67;2.00
46302;PMS7003;32029;51.358;5.628;2022-10-16T07:03:29;4.00;3.33;2.33
46302;PMS7003;32029;51.358;5.628;2022-10-16T07:05:56;4.00;4.00;3.00
46302;PMS7003;32029;51.358;5.628;2022-10-16T07:08:22;3.33;3.33;3.00
46302;PMS7003;32029;51.358;5.628;2022-10-16T07:10:57;3.00;3.00;2.67
46302;PMS7003;32029;51.358;5.628;2022-10-16T07:13:35;1.33;1.33;1.00
46302;PMS7003;32029;51.358;5.628;2022-10-16T07:16:06;2.00;2.00;2.00
46302;PMS7003;32029;51.358;5.628;2022-10-16T07:18:39;2.33;2.33;2.00
46302;PMS7003;32029;51.358;5.628;2022-10-16T07:21:09;4.33;2.00;2.00
46302;PMS7003;32029;51.358;5.628;2022-10-16T07:23:37;3.00;3.00;2.00
46302;PMS7003;32029;51.358;5.628;2022-10-16T07:26:04;5.67;2.33;2.00
46302;PMS7003;32029;51.358;5.628;2022-10-16T07:28:31;3.00;3.00;3.00
46302;PMS7003;32029;51.358;5.628;2022-10-16T07:31:06;2.33;2.33;2.00
46302;PMS7003;32029;51.358;5.628;2022-10-16T07:33:37;3.00;3.00;2.33
46302;PMS7003;32029;51.358;5.628;2022-10-16T07:36:05;3.00;3.00;2.33
46302;PMS7003;32029;51.358;5.628;2022-10-16T07:38:32;4.00;3.00;2.67
46302;PMS7003;32029;51.358;5.628;2022-10-16T07:41:03;4.67;3.00;2.67
46302;PMS7003;32029;51.358;5.628;2022-10-16T07:43:32;4.00;3.00;3.00
46302;PMS7003;32029;51.358;5.628;2022-10-16T07:45:59;3.00;3.00;3.00
46302;PMS7003;32029;51.358;5.628;2022-10-16T07:48:27;3.00;3.00;2.00
46302;PMS7003;32029;51.358;5.628;2022-10-16T07:51:05;2.00;2.00;2.00
46302;PMS7003;32029;51.358;5.628;2022-10-16T07:53:33;3.00;3.00;3.00
46302;PMS7003;32029;51.358;5.628;2022-10-16T07:56:04;4.00;4.00;2.60
46302;PMS7003;32029;51.358;5.628;2022-10-16T07:58:33;4.00;4.00;3.00
46302;PMS7003;32029;51.358;5.628;2022-10-16T08:01:03;7.00;5.00;3.00
46302;PMS7003;32029;51.358;5.628;2022-10-16T08:03:31;3.00;3.00;2.00
46302;PMS7003;32029;51.358;5.628;2022-10-16T08:05:59;3.00;3.00;2.00
46302;PMS7003;32029;51.358;5.628;2022-10-16T08:08:27;4.00;4.00;3.00
46302;PMS7003;32029;51.358;5.628;2022-10-16T08:10:55;2.67;2.67;2.00
46302;PMS7003;32029;51.358;5.628;2022-10-16T08:13:22;2.67;2.67;2.33
46302;PMS7003;32029;51.358;5.628;2022-10-16T08:15:49;4.00;3.00;3.00
46302;PMS7003;32029;51.358;5.628;2022-10-16T08:18:16;2.33;2.33;2.33
46302;PMS7003;32029;51.358;5.628;2022-10-16T08:20:44;3.00;3.00;2.67
46302;PMS7003;32029;51.358;5.628;2022-10-16T08:23:12;5.33;4.33;3.00
46302;PMS7003;32029;51.358;5.628;2022-10-16T08:25:39;2.00;2.00;1.00
46302;PMS7003;32029;51.358;5.628;2022-10-16T08:28:08;1.00;1.00;1.00
46302;PMS7003;32029;51.358;5.628;2022-10-16T08:30:36;2.00;2.00;2.00
46302;PMS7003;32029;51.358;5.628;2022-10-16T08:33:03;2.33;2.00;1.67
46302;PMS7003;32029;51.358;5.628;2022-10-16T08:35:31;3.00;3.00;2.00
46302;PMS7003;32029;51.358;5.628;2022-10-16T08:37:59;2.00;2.00;2.00
46302;PMS7003;32029;51.358;5.628;2022-10-16T08:40:27;2.00;2.00;2.00
46302;PMS7003;32029;51.358;5.628;2022-10-16T08:43:12;2.00;2.00;2.00
46302;PMS7003;32029;51.358;5.628;2022-10-16T08:49:00;2.33;2.00;2.00
46302;PMS7003;32029;51.358;5.628;2022-10-16T08:51:32;1.00;1.00;1.00
46302;PMS7003;32029;51.358;5.628;2022-10-16T08:56:39;2.00;2.00;1.00
46302;PMS7003;32029;51.358;5.628;2022-10-16T08:59:06;5.33;3.00;2.00
46302;PMS7003;32029;51.358;5.628;2022-10-16T09:01:38;0.00;0.00;0.00
46302;PMS7003;32029;51.358;5.628;2022-10-16T09:06:47;1.00;1.00;1.00
46302;PMS7003;32029;51.358;5.628;2022-10-16T09:20:13;2.33;1.00;1.00
46302;PMS7003;32029;51.358;5.628;2022-10-16T09:22:50;2.00;2.00;1.00
46302;PMS7003;32029;51.358;5.628;2022-10-16T09:25:22;1.40;1.00;1.00
46302;PMS7003;32029;51.358;5.628;2022-10-16T09:27:50;1.33;1.33;1.33
46302;PMS7003;32029;51.358;5.628;2022-10-16T09:30:20;1.67;1.67;1.00
46302;PMS7003;32029;51.358;5.628;2022-10-16T09:32:52;2.20;1.80;1.00
46302;PMS7003;32029;51.358;5.628;2022-10-16T09:38:23;2.80;2.00;2.00
46302;PMS7003;32029;51.358;5.628;2022-10-16T09:40:57;2.00;2.00;2.00
46302;PMS7003;32029;51.358;5.628;2022-10-16T09:46:06;2.80;1.40;1.40
46302;PMS7003;32029;51.358;5.628;2022-10-16T09:48:44;1.00;1.00;1.00
46302;PMS7003;32029;51.358;5.628;2022-10-16T09:51:18;2.00;2.00;2.00
46302;PMS7003;32029;51.358;5.628;2022-10-16T09:56:35;2.00;1.00;1.00
46302;PMS7003;32029;51.358;5.628;2022-10-16T09:59:08;3.00;1.00;1.00
46302;PMS7003;32029;51.358;5.628;2022-10-16T10:01:40;2.67;2.67;2.67
46302;PMS7003;32029;51.358;5.628;2022-10-16T10:04:10;2.00;2.00;1.60
46302;PMS7003;32029;51.358;5.628;2022-10-16T10:06:41;2.00;2.00;1.00
46302;PMS7003;32029;51.358;5.628;2022-10-16T10:09:19;3.00;2.00;2.00
46302;PMS7003;32029;51.358;5.628;2022-10-16T10:19:46;2.60;1.40;1.00
46302;PMS7003;32029;51.358;5.628;2022-10-16T10:22:38;1.33;1.33;1.00
46302;PMS7003;32029;51.358;5.628;2022-10-16T10:28:01;2.20;1.00;1.00
46302;PMS7003;32029;51.358;5.628;2022-10-16T10:36:21;0.33;0.33;0.00
46302;PMS7003;32029;51.358;5.628;2022-10-16T10:55:51;2.00;1.00;1.00
46302;PMS7003;32029;51.358;5.628;2022-10-16T11:07:11;0.00;0.00;0.00
46302;PMS7003;32029;51.358;5.628;2022-10-16T11:09:47;2.00;1.67;1.00
46302;PMS7003;32029;51.358;5.628;2022-10-16T11:12:21;1.33;0.00;0.00
46302;PMS7003;32029;51.358;5.628;2022-10-16T11:14:56;1.00;1.00;1.00
46302;PMS7003;32029;51.358;5.628;2022-10-16T11:18:21;2.00;2.00;1.00
46302;PMS7003;32029;51.358;5.628;2022-10-16T11:20:46;0.00;0.00;0.00
46302;PMS7003;32029;51.358;5.628;2022-10-16T11:23:29;2.00;1.00;0.33
46302;PMS7003;32029;51.358;5.628;2022-10-16T11:26:03;0.00;0.00;0.00
46302;PMS7003;32029;51.358;5.628;2022-10-16T11:28:39;0.00;0.00;0.00
46302;PMS7003;32029;51.358;5.628;2022-10-16T11:31:28;1.00;1.00;1.00
46302;PMS7003;32029;51.358;5.628;2022-10-16T11:36:36;3.00;1.00;1.00
46302;PMS7003;32029;51.358;5.628;2022-10-16T11:39:20;1.67;1.67;1.00
46302;PMS7003;32029;51.358;5.628;2022-10-16T11:49:57;0.67;0.67;0.67
46302;PMS7003;32029;51.358;5.628;2022-10-16T11:55:14;3.00;3.00;2.00
46302;PMS7003;32029;51.358;5.628;2022-10-16T11:57:48;3.00;1.33;1.00
46302;PMS7003;32029;51.358;5.628;2022-10-16T12:00:27;2.33;1.33;1.00
46302;PMS7003;32029;51.358;5.628;2022-10-16T12:03:03;4.00;2.00;1.33
46302;PMS7003;32029;51.358;5.628;2022-10-16T12:05:52;1.00;1.00;1.00
46302;PMS7003;32029;51.358;5.628;2022-10-16T12:08:36;2.00;2.00;1.00
46302;PMS7003;32029;51.358;5.628;2022-10-16T12:11:09;1.00;1.00;1.00
46302;PMS7003;32029;51.358;5.628;2022-10-16T12:16:36;2.20;1.80;1.60
46302;PMS7003;32029;51.358;5.628;2022-10-16T12:19:15;1.00;1.00;1.00
46302;PMS7003;32029;51.358;5.628;2022-10-16T12:21:44;1.00;0.00;0.00
46302;PMS7003;32029;51.358;5.628;2022-10-16T12:24:50;2.00;2.00;1.00
46302;PMS7003;32029;51.358;5.628;2022-10-16T12:27:24;1.33;1.33;1.33
46302;PMS7003;32029;51.358;5.628;2022-10-16T12:29:55;2.00;2.00;1.40
46302;PMS7003;32029;51.358;5.628;2022-10-16T12:32:31;1.67;0.33;0.33
46302;PMS7003;32029;51.358;5.628;2022-10-16T12:35:00;1.00;1.00;1.00
46302;PMS7003;32029;51.358;5.628;2022-10-16T12:37:31;3.00;1.33;1.00
46302;PMS7003;32029;51.358;5.628;2022-10-16T12:40:11;1.00;1.00;1.00
46302;PMS7003;32029;51.358;5.628;2022-10-16T12:42:41;1.00;1.00;0.67
46302;PMS7003;32029;51.358;5.628;2022-10-16T12:45:30;1.33;1.33;1.00
46302;PMS7003;32029;51.358;5.628;2022-10-16T12:47:59;1.00;1.00;1.00
46302;PMS7003;32029;51.358;5.628;2022-10-16T12:50:32;1.00;1.00;1.00
46302;PMS7003;32029;51.358;5.628;2022-10-16T12:53:19;1.40;1.40;1.00
46302;PMS7003;32029;51.358;5.628;2022-10-16T12:55:51;0.67;0.67;0.33
46302;PMS7003;32029;51.358;5.628;2022-10-16T12:58:33;1.67;1.00;1.00
46302;PMS7003;32029;51.358;5.628;2022-10-16T13:18:26;1.40;1.00;1.00
46302;PMS7003;32029;51.358;5.628;2022-10-16T13:26:17;2.33;1.00;1.00
46302;PMS7003;32029;51.358;5.628;2022-10-16T13:28:50;2.00;0.67;0.67
46302;PMS7003;32029;51.358;5.628;2022-10-16T13:31:19;0.67;0.00;0.00
46302;PMS7003;32029;51.358;5.628;2022-10-16T13:33:54;2.00;0.33;0.00
46302;PMS7003;32029;51.358;5.628;2022-10-16T13:36:29;1.00;1.00;1.00
46302;PMS7003;32029;51.358;5.628;2022-10-16T13:39:28;4.33;1.00;1.00
46302;PMS7003;32029;51.358;5.628;2022-10-16T13:42:05;1.00;1.00;0.80
46302;PMS7003;32029;51.358;5.628;2022-10-16T13:44:43;1.00;1.00;1.00
46302;PMS7003;32029;51.358;5.628;2022-10-16T13:49:46;1.00;1.00;1.00
46302;PMS7003;32029;51.358;5.628;2022-10-16T13:52:25;1.00;1.00;1.00
46302;PMS7003;32029;51.358;5.628;2022-10-16T13:54:53;0.60;0.60;0.60
46302;PMS7003;32029;51.358;5.628;2022-10-16T13:57:22;0.60;0.60;0.00
46302;PMS7003;32029;51.358;5.628;2022-10-16T13:59:52;0.00;0.00;0.00
46302;PMS7003;32029;51.358;5.628;2022-10-16T14:02:30;1.00;1.00;1.00
46302;PMS7003;32029;51.358;5.628;2022-10-16T14:05:01;1.33;1.00;1.00
46302;PMS7003;32029;51.358;5.628;2022-10-16T14:07:33;0.67;0.67;0.00
46302;PMS7003;32029;51.358;5.628;2022-10-16T14:10:07;2.33;1.00;1.00
46302;PMS7003;32029;51.358;5.628;2022-10-16T14:12:56;0.60;0.60;0.20
46302;PMS7003;32029;51.358;5.628;2022-10-16T14:15:24;1.00;0.67;0.67
46302;PMS7003;32029;51.358;5.628;2022-10-16T14:17:52;1.00;0.33;0.33
46302;PMS7003;32029;51.358;5.628;2022-10-16T14:20:23;1.60;0.60;0.60
46302;PMS7003;32029;51.358;5.628;2022-10-16T14:23:03;0.67;0.67;0.33
46302;PMS7003;32029;51.358;5.628;2022-10-16T14:28:37;2.00;2.00;1.00
46302;PMS7003;32029;51.358;5.628;2022-10-16T14:34:52;2.00;1.00;1.00
46302;PMS7003;32029;51.358;5.628;2022-10-16T14:37:13;0.67;0.67;0.67
46302;PMS7003;32029;51.358;5.628;2022-10-16T14:39:42;1.00;1.00;0.33
46302;PMS7003;32029;51.358;5.628;2022-10-16T14:42:16;0.60;0.60;0.60
46302;PMS7003;32029;51.358;5.628;2022-10-16T14:50:01;0.67;0.67;0.67
46302;PMS7003;32029;51.358;5.628;2022-10-16T14:52:28;2.20;0.60;0.60
46302;PMS7003;32029;51.358;5.628;2022-10-16T15:13:16;0.33;0.33;0.33
46302;PMS7003;32029;51.358;5.628;2022-10-16T15:15:45;1.20;0.20;0.00
46302;PMS7003;32029;51.358;5.628;2022-10-16T15:20:53;1.00;1.00;1.00
46302;PMS7003;32029;51.358;5.628;2022-10-16T15:23:21;0.67;0.67;0.00
46302;PMS7003;32029;51.358;5.628;2022-10-16T15:25:49;0.33;0.33;0.00
46302;PMS7003;32029;51.358;5.628;2022-10-16T15:28:20;2.00;1.00;1.00
46302;PMS7003;32029;51.358;5.628;2022-10-16T15:30:49;1.00;1.00;1.00
46302;PMS7003;32029;51.358;5.628;2022-10-16T15:33:19;1.67;0.67;0.67
46302;PMS7003;32029;51.358;5.628;2022-10-16T15:38:24;2.33;1.33;1.00
46302;PMS7003;32029;51.358;5.628;2022-10-16T15:43:29;0.67;0.67;0.67
46302;PMS7003;32029;51.358;5.628;2022-10-16T15:46:01;2.60;2.00;1.20
46302;PMS7003;32029;51.358;5.628;2022-10-16T16:12:06;2.33;1.00;1.00
46302;PMS7003;32029;51.358;5.628;2022-10-16T16:14:33;2.00;1.00;1.00
46302;PMS7003;32029;51.358;5.628;2022-10-16T16:17:04;3.00;2.00;1.00
46302;PMS7003;32029;51.358;5.628;2022-10-16T16:19:33;2.00;2.00;2.00
46302;PMS7003;32029;51.358;5.628;2022-10-16T16:22:01;3.80;2.00;2.00
46302;PMS7003;32029;51.358;5.628;2022-10-16T16:24:30;4.00;2.40;2.00
46302;PMS7003;32029;51.358;5.628;2022-10-16T16:37:30;5.40;5.40;4.20
46302;PMS7003;32029;51.358;5.628;2022-10-16T16:39:57;4.40;4.00;3.80
46302;PMS7003;32029;51.358;5.628;2022-10-16T16:42:27;4.67;4.00;3.00
46302;PMS7003;32029;51.358;5.628;2022-10-16T16:44:54;3.00;3.00;3.00
46302;PMS7003;32029;51.358;5.628;2022-10-16T16:47:21;2.67;2.67;2.00
46302;PMS7003;32029;51.358;5.628;2022-10-16T16:49:49;5.00;4.00;3.00
46302;PMS7003;32029;51.358;5.628;2022-10-16T16:52:17;7.00;5.00;5.00
46302;PMS7003;32029;51.358;5.628;2022-10-16T16:54:45;5.00;5.00;5.00
46302;PMS7003;32029;51.358;5.628;2022-10-16T16:57:18;7.67;5.00;4.00
46302;PMS7003;32029;51.358;5.628;2022-10-16T16:59:46;6.00;6.00;5.80
46302;PMS7003;32029;51.358;5.628;2022-10-16T17:02:17;6.00;6.00;5.60
46302;PMS7003;32029;51.358;5.628;2022-10-16T17:04:45;6.00;6.00;5.00
46302;PMS7003;32029;51.358;5.628;2022-10-16T17:07:13;6.00;5.60;5.00
46302;PMS7003;32029;51.358;5.628;2022-10-16T17:09:42;7.40;5.00;5.00
46302;PMS7003;32029;51.358;5.628;2022-10-16T17:12:10;7.80;5.60;5.00
46302;PMS7003;32029;51.358;5.628;2022-10-16T17:14:37;7.33;7.33;6.00
46302;PMS7003;32029;51.358;5.628;2022-10-16T17:17:04;6.60;6.00;5.00
46302;PMS7003;32029;51.358;5.628;2022-10-16T17:19:34;6.20;5.60;5.00
46302;PMS7003;32029;51.358;5.628;2022-10-16T17:22:02;6.20;5.20;4.00
46302;PMS7003;32029;51.358;5.628;2022-10-16T17:24:30;6.00;6.00;5.00
46302;PMS7003;32029;51.358;5.628;2022-10-16T17:26:57;6.00;6.00;5.00
46302;PMS7003;32029;51.358;5.628;2022-10-16T17:29:24;6.33;6.33;5.00
46302;PMS7003;32029;51.358;5.628;2022-10-16T17:31:52;5.40;5.00;5.00
46302;PMS7003;32029;51.358;5.628;2022-10-16T17:34:23;8.00;7.00;6.00
46302;PMS7003;32029;51.358;5.628;2022-10-16T17:36:52;7.00;6.20;5.80
46302;PMS7003;32029;51.358;5.628;2022-10-16T17:39:19;8.00;6.00;5.67
46302;PMS7003;32029;51.358;5.628;2022-10-16T17:41:46;7.40;7.40;6.00
46302;PMS7003;32029;51.358;5.628;2022-10-16T17:44:15;6.40;5.80;5.00
46302;PMS7003;32029;51.358;5.628;2022-10-16T17:46:47;6.40;6.40;5.20
46302;PMS7003;32029;51.358;5.628;2022-10-16T17:49:18;8.40;7.40;6.40
46302;PMS7003;32029;51.358;5.628;2022-10-16T17:51:48;8.00;6.00;5.00
46302;PMS7003;32029;51.358;5.628;2022-10-16T17:54:17;7.60;6.20;5.40
46302;PMS7003;32029;51.358;5.628;2022-10-16T17:56:45;7.00;7.00;5.00
46302;PMS7003;32029;51.358;5.628;2022-10-16T17:59:14;7.60;7.40;5.80
46302;PMS7003;32029;51.358;5.628;2022-10-16T18:01:42;7.60;7.40;5.40
46302;PMS7003;32029;51.358;5.628;2022-10-16T18:04:15;8.00;6.40;5.00